Portada
METAR-TAF:

METAR-TAF

Aeropuertos :

Aeropuerto Internacional Ninoy Aquino

Manila, Filipinas

latitud: 14-31N, longitud: 121-00E, altitud: 14 m

Observación

El informe se hizo hace 13 minutos, a las 14:00 UTC
Viento 8 kt del este-noreste
Temperatura 30°C
Humedad 75%
Presión 1011 hPa
Visibilidad 10 km o más
Escasas nubes a una altura de 2500 ft

METAR: RPLL 241400Z 07008KT 9999 FEW025 30/25 Q1011 NOSIG RMK A2985

Hora: 22:13 (14:13 UTC)

Pronóstico

El informe se hizo hace 3 horas y 13 minutos, a las 11:00 UTC
Pronóstico válido del 24 a las 12 UTC al 25 a las 18 UTC
Viento 8 kt del este-sureste
Visibilidad 10 km o más
Escasas nubes a una altura de 2500 ft
Temporalmente
del 25 a las 03 UTC al 25 a las 09 UTC
Viento 14 kt del este-sureste

TAF: RPLL 241100Z 2412/2518 11008KT 9999 FEW025 TX36/2506Z TN27/2421Z TEMPO 2503/2509 11014KT

Observaciones y pronósticos meteorológicos de más de 4000 aeropuertos (mensajes METAR y TAF).

Los puntos amarillos y rojos representan las estaciones disponibles.

Ponga el ratón en el punto deseado para ver el nombre de la estación.

Haga clic para ver las observaciones y los pronósticos meteorológicos.

Para cambiar el mapa : haga clic en los botones verdes con una cruz de color negro para hacer un zoom, en el botón verde con un guión para alejar o en las flechas verdes para mapas adyacentes.


METAR-TAF: